createdAt,value
2018-04-11T00:01:58.812Z,5.20
2018-04-11T00:04:27.087Z,5.20
2018-04-11T00:06:55.428Z,5.90
2018-04-11T00:09:23.739Z,5.50
2018-04-11T00:11:52.057Z,5.80
2018-04-11T00:14:21.113Z,5.90
2018-04-11T00:16:49.437Z,7.23
2018-04-11T00:19:17.712Z,5.73
2018-04-11T00:21:46.731Z,5.30
2018-04-11T00:24:15.049Z,5.40
2018-04-11T00:26:43.318Z,7.20
2018-04-11T00:29:11.578Z,6.20
2018-04-11T00:31:39.874Z,7.10
2018-04-11T00:34:08.154Z,6.40
2018-04-11T00:36:36.483Z,6.00
2018-04-11T00:39:04.779Z,8.30
2018-04-11T00:41:33.101Z,6.30
2018-04-11T00:44:01.398Z,7.37
2018-04-11T00:46:30.434Z,5.70
2018-04-11T00:48:58.778Z,7.97
2018-04-11T00:51:27.822Z,6.73
2018-04-11T00:53:56.153Z,9.77
2018-04-11T00:56:25.920Z,6.80
2018-04-11T00:58:54.235Z,7.60
2018-04-11T01:01:23.306Z,9.27
2018-04-11T01:03:51.568Z,7.17
2018-04-11T01:06:19.916Z,10.80
2018-04-11T01:08:48.185Z,6.60
2018-04-11T01:11:16.461Z,8.10
2018-04-11T01:13:44.773Z,7.30
2018-04-11T01:16:13.048Z,6.73
2018-04-11T01:18:41.335Z,7.13
2018-04-11T01:21:09.609Z,7.40
2018-04-11T01:23:37.928Z,7.17
2018-04-11T01:26:06.196Z,8.30
2018-04-11T01:28:34.471Z,8.07
2018-04-11T01:31:02.793Z,8.60
2018-04-11T01:33:31.072Z,6.90
2018-04-11T01:35:59.384Z,6.87
2018-04-11T01:38:27.667Z,6.80
2018-04-11T01:40:55.928Z,8.97
2018-04-11T01:43:24.251Z,7.00
2018-04-11T01:45:52.518Z,8.07
2018-04-11T01:48:20.773Z,8.33
2018-04-11T01:50:49.088Z,12.60
2018-04-11T01:53:18.140Z,8.53
2018-04-11T01:55:46.440Z,9.13
2018-04-11T01:58:14.696Z,7.63
2018-04-11T02:00:42.970Z,8.50
2018-04-11T02:03:11.293Z,7.60
2018-04-11T02:05:40.336Z,7.70
2018-04-11T02:08:08.607Z,7.80
2018-04-11T02:10:36.897Z,11.33
2018-04-11T02:13:05.173Z,8.13
2018-04-11T02:15:33.464Z,8.47
2018-04-11T02:18:02.073Z,9.13
2018-04-11T02:20:30.429Z,9.13
2018-04-11T02:22:58.795Z,12.87
2018-04-11T02:25:27.204Z,10.57
2018-04-11T02:27:55.493Z,9.27
2018-04-11T02:30:23.769Z,11.10
2018-04-11T02:32:52.085Z,10.53
2018-04-11T02:35:20.383Z,8.90
2018-04-11T02:37:48.693Z,10.03
2018-04-11T02:40:16.978Z,9.87
2018-04-11T02:42:45.259Z,13.20
2018-04-11T02:45:14.331Z,11.87
2018-04-11T02:47:42.603Z,9.20
2018-04-11T02:50:10.904Z,9.73
2018-04-11T02:52:39.165Z,11.60
2018-04-11T02:55:07.480Z,11.87
2018-04-11T02:57:36.608Z,9.47
2018-04-11T03:00:04.875Z,9.33
2018-04-11T03:02:33.184Z,10.57
2018-04-11T03:05:01.458Z,11.40
2018-04-11T03:07:29.783Z,10.53
2018-04-11T03:09:58.048Z,10.73
2018-04-11T03:12:27.929Z,10.57
2018-04-11T03:14:56.239Z,11.27
2018-04-11T03:17:24.512Z,11.00
2018-04-11T03:19:52.836Z,10.73
2018-04-11T03:22:21.124Z,10.33
2018-04-11T03:24:49.393Z,9.97
2018-04-11T03:27:17.739Z,14.83
2018-04-11T03:29:46.029Z,13.90
2018-04-11T03:32:15.111Z,11.00
2018-04-11T03:34:43.417Z,12.40
2018-04-11T03:37:12.682Z,9.20
2018-04-11T03:39:41.001Z,11.43
2018-04-11T03:42:09.277Z,10.63
2018-04-11T03:44:37.593Z,10.80
2018-04-11T03:47:05.893Z,11.90
2018-04-11T03:49:34.158Z,12.93
2018-04-11T03:52:02.469Z,12.77
2018-04-11T03:54:31.512Z,10.93
2018-04-11T03:56:59.838Z,14.90
2018-04-11T03:59:28.144Z,12.07
2018-04-11T04:01:56.440Z,18.60
2018-04-11T04:04:24.759Z,10.43
2018-04-11T04:06:53.102Z,13.13
2018-04-11T04:09:21.446Z,12.30
2018-04-11T04:11:49.735Z,14.97
2018-04-11T04:14:29.895Z,20.13
2018-04-11T04:17:10.173Z,38.27
2018-04-11T04:19:50.518Z,53.50
2018-04-11T04:22:18.767Z,24.90
2018-04-11T04:24:47.808Z,16.07
2018-04-11T04:27:16.116Z,15.40
2018-04-11T04:29:44.390Z,19.60
2018-04-11T04:32:12.778Z,11.43
2018-04-11T04:34:41.154Z,15.57
2018-04-11T04:37:09.425Z,10.43
2018-04-11T04:39:37.725Z,12.23
2018-04-11T04:42:06.775Z,14.40
2018-04-11T04:44:35.135Z,12.13
2018-04-11T04:47:03.409Z,12.30
2018-04-11T04:49:31.913Z,14.90
2018-04-11T04:52:00.221Z,13.63
2018-04-11T04:54:28.513Z,11.87
2018-04-11T04:56:56.843Z,13.70
2018-04-11T04:59:25.147Z,12.20
2018-04-11T05:01:53.441Z,17.37
2018-04-11T05:04:21.751Z,10.30
2018-04-11T05:06:50.039Z,10.73
2018-04-11T05:09:18.360Z,11.10
2018-04-11T05:11:46.697Z,12.10
2018-04-11T05:14:15.029Z,11.00
2018-04-11T05:16:43.305Z,11.13
2018-04-11T05:19:11.622Z,10.67
2018-04-11T05:21:39.900Z,12.97
2018-04-11T05:24:08.225Z,11.10
2018-04-11T05:26:36.502Z,10.27
2018-04-11T05:29:04.812Z,10.40
2018-04-11T05:31:33.087Z,11.70
2018-04-11T05:34:02.180Z,15.80
2018-04-11T05:36:30.461Z,19.60
2018-04-11T05:38:59.544Z,17.93
2018-04-11T05:41:27.820Z,14.00
2018-04-11T05:43:56.117Z,20.37
2018-04-11T05:46:25.185Z,14.70
2018-04-11T05:48:53.504Z,17.23
2018-04-11T05:51:21.830Z,14.10
2018-04-11T05:53:50.119Z,11.53
2018-04-11T05:56:18.441Z,13.47
2018-04-11T05:58:46.732Z,15.30
2018-04-11T06:01:15.005Z,12.93
2018-04-11T06:03:43.320Z,12.50
2018-04-11T06:06:12.440Z,13.40
2018-04-11T06:08:40.817Z,16.17
2018-04-11T06:11:09.103Z,13.27
2018-04-11T06:13:37.394Z,17.00
2018-04-11T06:16:06.497Z,13.43
2018-04-11T06:18:35.557Z,18.17
2018-04-11T06:21:03.878Z,12.90
2018-04-11T06:23:32.983Z,12.43
2018-04-11T06:26:01.271Z,14.93
2018-04-11T06:28:29.595Z,15.30
2018-04-11T06:30:57.878Z,14.47
2018-04-11T06:33:26.204Z,12.97
2018-04-11T06:35:54.583Z,12.63
2018-04-11T06:38:23.014Z,19.63
2018-04-11T06:40:52.167Z,15.00
2018-04-11T06:43:20.454Z,13.83
2018-04-11T06:45:48.800Z,14.23
2018-04-11T06:48:17.950Z,18.20
2018-04-11T06:50:46.238Z,11.80
2018-04-11T06:53:14.597Z,13.17
2018-04-11T06:55:42.913Z,13.00
2018-04-11T06:58:11.217Z,14.43
2018-04-11T07:00:39.488Z,14.13
2018-04-11T07:03:08.574Z,13.20
2018-04-11T07:05:36.914Z,17.27
2018-04-11T07:08:06.001Z,13.50
2018-04-11T07:10:34.337Z,13.80
2018-04-11T07:13:03.412Z,15.87
2018-04-11T07:15:31.688Z,16.20
2018-04-11T07:17:59.992Z,16.27
2018-04-11T07:20:29.048Z,17.90
2018-04-11T07:22:57.429Z,15.10
2018-04-11T07:25:25.721Z,16.00
2018-04-11T07:27:53.988Z,13.33
2018-04-11T07:30:22.320Z,13.20
2018-04-11T07:32:51.374Z,15.07
2018-04-11T07:35:19.680Z,16.93
2018-04-11T07:37:48.740Z,14.27
2018-04-11T07:40:17.090Z,13.63
2018-04-11T07:42:45.394Z,17.23
2018-04-11T07:45:13.676Z,16.43
2018-04-11T07:47:41.979Z,12.70
2018-04-11T07:50:11.137Z,16.63
2018-04-11T07:52:39.529Z,14.73
2018-04-11T07:55:08.048Z,13.90
2018-04-11T07:57:37.102Z,16.13
2018-04-11T08:00:05.424Z,14.60
2018-04-11T08:02:34.495Z,22.90
2018-04-11T08:05:02.885Z,13.43
2018-04-11T08:07:31.192Z,12.27
2018-04-11T08:10:00.381Z,11.70
2018-04-11T08:12:31.305Z,10.27
2018-04-11T08:14:59.650Z,11.80
2018-04-11T08:17:27.973Z,10.03
2018-04-11T08:19:57.065Z,9.50
2018-04-11T08:22:26.143Z,8.43
2018-04-11T08:24:54.756Z,8.30
2018-04-11T08:27:23.126Z,8.17
2018-04-11T08:29:51.461Z,9.00
2018-04-11T08:32:19.746Z,8.10
2018-04-11T08:34:48.032Z,8.67
2018-04-11T08:37:16.348Z,9.80
2018-04-11T08:39:46.108Z,8.53
2018-04-11T08:42:15.361Z,8.53
2018-04-11T08:44:46.295Z,9.20
2018-04-11T08:47:14.563Z,10.87
2018-04-11T08:49:43.217Z,9.53
2018-04-11T08:52:12.441Z,7.43
2018-04-11T08:54:40.716Z,8.13
2018-04-11T08:57:09.013Z,8.20
2018-04-11T08:59:38.105Z,8.17
2018-04-11T09:02:06.424Z,8.07
2018-04-11T09:04:34.694Z,9.20
2018-04-11T09:07:02.963Z,7.23
2018-04-11T09:09:31.716Z,8.57
2018-04-11T09:11:59.995Z,7.10
2018-04-11T09:14:28.331Z,7.70
2018-04-11T09:16:56.605Z,6.73
2018-04-11T09:19:24.924Z,8.30
2018-04-11T09:21:53.225Z,6.53
2018-04-11T09:24:22.269Z,7.27
2018-04-11T09:26:50.599Z,6.70
2018-04-11T09:29:19.728Z,5.90
2018-04-11T09:31:48.061Z,7.20
2018-04-11T09:34:16.401Z,8.53
2018-04-11T09:36:44.682Z,6.47
2018-04-11T09:39:13.014Z,7.20
2018-04-11T09:41:42.064Z,8.40
2018-04-11T09:44:10.344Z,6.13
2018-04-11T09:46:39.391Z,6.40
2018-04-11T09:49:08.406Z,6.40
2018-04-11T09:51:36.712Z,7.23
2018-04-11T09:54:05.004Z,6.43
2018-04-11T09:56:33.354Z,6.40
2018-04-11T09:59:01.656Z,7.07
2018-04-11T10:01:35.555Z,6.20
2018-04-11T10:04:04.666Z,6.80
2018-04-11T10:06:32.972Z,6.17
2018-04-11T10:09:02.026Z,7.23
2018-04-11T10:11:30.355Z,6.80
2018-04-11T10:13:58.632Z,8.00
2018-04-11T10:16:26.958Z,5.70
2018-04-11T10:18:55.267Z,9.00
2018-04-11T10:21:23.555Z,7.97
2018-04-11T10:23:51.875Z,6.60
2018-04-11T10:26:20.167Z,6.20
2018-04-11T10:28:48.526Z,39.17
2018-04-11T10:31:16.805Z,12.33
2018-04-11T10:33:45.134Z,6.70
2018-04-11T10:36:13.450Z,6.70
2018-04-11T10:38:42.472Z,6.43
2018-04-11T10:41:10.830Z,5.47
2018-04-11T10:43:39.110Z,7.50
2018-04-11T10:46:07.448Z,9.10
2018-04-11T10:48:35.758Z,6.00
2018-04-11T10:51:04.810Z,7.47
2018-04-11T10:53:33.119Z,5.93
2018-04-11T10:56:02.172Z,5.80
2018-04-11T10:58:30.539Z,5.57
2018-04-11T11:00:58.769Z,5.33
2018-04-11T11:03:28.516Z,5.00
2018-04-11T11:05:57.288Z,4.82
2018-04-11T11:08:26.382Z,5.93
2018-04-11T11:10:55.414Z,6.10
2018-04-11T11:13:23.777Z,5.93
2018-04-11T11:15:52.037Z,5.33
2018-04-11T11:18:20.346Z,7.07
2018-04-11T11:20:58.336Z,5.23
2018-04-11T11:23:26.644Z,6.47
2018-04-11T11:26:03.432Z,6.17
2018-04-11T11:28:31.730Z,5.10
2018-04-11T11:31:00.062Z,5.40
2018-04-11T11:33:28.347Z,4.83
2018-04-11T11:35:57.255Z,5.78
2018-04-11T11:38:25.578Z,4.53
2018-04-11T11:40:54.622Z,4.83
2018-04-11T11:43:22.888Z,7.33
2018-04-11T11:45:51.211Z,7.63
2018-04-11T11:48:19.519Z,6.10
2018-04-11T11:50:47.817Z,10.60
2018-04-11T11:53:16.098Z,6.30
2018-04-11T11:55:44.396Z,10.40
2018-04-11T11:58:12.740Z,4.80
2018-04-11T12:00:40.996Z,8.50
2018-04-11T12:03:10.129Z,4.77
2018-04-11T12:05:38.450Z,4.20
2018-04-11T12:08:07.512Z,3.80
2018-04-11T12:10:35.832Z,4.37
2018-04-11T12:13:04.112Z,3.93
2018-04-11T12:15:32.548Z,3.77
2018-04-11T12:18:00.807Z,4.10
2018-04-11T12:20:29.069Z,8.60
2018-04-11T12:22:58.233Z,4.70
2018-04-11T12:25:26.495Z,5.80
2018-04-11T12:27:54.815Z,5.43
2018-04-11T12:30:23.866Z,4.93
2018-04-11T12:32:52.150Z,3.80
2018-04-11T12:35:21.234Z,6.40
2018-04-11T12:37:49.523Z,7.53
2018-04-11T12:40:17.800Z,9.17
2018-04-11T12:42:46.121Z,5.43
2018-04-11T12:45:15.161Z,5.67
2018-04-11T12:47:43.448Z,7.03
2018-04-11T12:50:11.757Z,7.73
2018-04-11T12:52:40.067Z,27.43
2018-04-11T12:55:08.395Z,8.07
2018-04-11T12:57:36.697Z,5.77
2018-04-11T13:00:04.961Z,7.73
2018-04-11T13:02:33.256Z,7.13
2018-04-11T13:05:02.302Z,8.77
2018-04-11T13:07:30.639Z,9.40
2018-04-11T13:09:59.694Z,8.10
2018-04-11T13:12:27.969Z,7.67
2018-04-11T13:14:56.269Z,9.20
2018-04-11T13:17:24.549Z,8.73
2018-04-11T13:19:52.865Z,7.77
2018-04-11T13:22:21.150Z,7.80
2018-04-11T13:24:49.423Z,6.50
2018-04-11T13:27:17.734Z,7.60
2018-04-11T13:29:46.014Z,7.70
2018-04-11T13:32:14.347Z,8.40
2018-04-11T13:34:42.634Z,8.47
2018-04-11T13:37:10.908Z,7.83
2018-04-11T13:39:39.270Z,9.40
2018-04-11T13:42:08.320Z,8.20
2018-04-11T13:44:36.604Z,7.53
2018-04-11T13:47:05.032Z,7.47
2018-04-11T13:49:33.266Z,7.90
2018-04-11T13:52:01.616Z,7.77
2018-04-11T13:54:29.878Z,7.77
2018-04-11T13:56:58.283Z,6.50
2018-04-11T13:59:26.580Z,7.63
2018-04-11T14:01:54.845Z,5.77
2018-04-11T14:04:23.211Z,6.60
2018-04-11T14:06:51.500Z,6.50
2018-04-11T14:09:19.774Z,6.10
2018-04-11T14:11:48.845Z,7.50
2018-04-11T14:14:17.102Z,6.27
2018-04-11T14:16:46.187Z,5.90
2018-04-11T14:19:14.475Z,5.80
2018-04-11T14:21:43.529Z,7.40
2018-04-11T14:24:11.829Z,6.53
2018-04-11T14:26:40.128Z,9.90
2018-04-11T14:29:09.224Z,6.20
2018-04-11T14:31:37.503Z,4.90
2018-04-11T14:34:06.545Z,5.13
2018-04-11T14:36:34.872Z,6.27
2018-04-11T14:39:03.170Z,4.33
2018-04-11T14:41:31.513Z,4.20
2018-04-11T14:44:00.562Z,7.27
2018-04-11T14:46:28.843Z,7.47
2018-04-11T14:48:57.153Z,6.63
2018-04-11T14:51:25.428Z,7.93
2018-04-11T14:53:53.786Z,7.57
2018-04-11T14:56:22.066Z,5.80
2018-04-11T14:58:50.328Z,6.67
2018-04-11T15:01:18.644Z,7.60
2018-04-11T15:03:46.933Z,7.53
2018-04-11T15:06:15.363Z,6.23
2018-04-11T15:08:44.548Z,7.37
2018-04-11T15:11:13.609Z,5.53
2018-04-11T15:13:41.888Z,5.07
2018-04-11T15:16:10.184Z,6.50
2018-04-11T15:18:39.284Z,12.43
2018-04-11T15:21:08.334Z,5.37
2018-04-11T15:23:36.620Z,5.67
2018-04-11T15:26:04.966Z,5.90
2018-04-11T15:28:33.242Z,6.87
2018-04-11T15:31:01.564Z,7.30
2018-04-11T15:33:29.833Z,6.73
2018-04-11T15:35:58.138Z,7.30
2018-04-11T15:38:26.473Z,7.37
2018-04-11T15:40:54.766Z,8.37
2018-04-11T15:43:23.852Z,7.37
2018-04-11T15:45:52.133Z,6.97
2018-04-11T15:48:20.402Z,8.67
2018-04-11T15:50:48.728Z,7.17
2018-04-11T15:53:17.782Z,6.53
2018-04-11T15:55:46.188Z,7.57
2018-04-11T15:58:14.500Z,6.33
2018-04-11T16:00:43.545Z,6.60
2018-04-11T16:03:11.854Z,7.47
2018-04-11T16:05:40.129Z,6.57
2018-04-11T16:08:08.435Z,8.37
2018-04-11T16:10:37.520Z,7.63
2018-04-11T16:13:05.928Z,8.37
2018-04-11T16:15:37.167Z,9.83
2018-04-11T16:18:06.667Z,7.37
2018-04-11T16:20:36.301Z,9.87
2018-04-11T16:23:05.127Z,9.47
2018-04-11T16:25:33.480Z,8.23
2018-04-11T16:28:02.148Z,8.70
2018-04-11T16:30:30.655Z,8.87
2018-04-11T16:32:59.433Z,8.80
2018-04-11T16:35:27.724Z,8.63
2018-04-11T16:37:56.223Z,8.80
2018-04-11T16:40:24.886Z,10.07
2018-04-11T16:42:54.065Z,8.33
2018-04-11T16:45:22.354Z,8.00
2018-04-11T16:47:50.630Z,7.73
2018-04-11T16:50:21.728Z,8.13
2018-04-11T16:52:51.060Z,8.23
2018-04-11T16:55:20.370Z,8.17
2018-04-11T16:57:48.676Z,7.27
2018-04-11T17:00:17.133Z,6.53
2018-04-11T17:02:45.658Z,6.53
2018-04-11T17:05:13.986Z,6.93
2018-04-11T17:07:42.304Z,6.40
2018-04-11T17:10:10.630Z,6.20
2018-04-11T17:12:38.975Z,6.93
2018-04-11T17:15:07.348Z,7.43
2018-04-11T17:17:35.615Z,5.80
2018-04-11T17:20:03.986Z,5.97
2018-04-11T17:36:03.731Z,8.37
2018-04-11T17:38:32.053Z,7.30
2018-04-11T17:41:00.352Z,11.17
2018-04-11T17:43:28.625Z,8.70
2018-04-11T17:45:56.999Z,9.40
2018-04-11T17:48:25.270Z,9.70
2018-04-11T17:50:53.578Z,8.83
2018-04-11T17:53:21.925Z,9.27
2018-04-11T17:55:50.210Z,8.47
2018-04-11T17:58:19.150Z,9.13
2018-04-11T18:00:55.645Z,8.53
2018-04-11T18:03:24.976Z,11.20
2018-04-11T18:05:56.583Z,8.80
2018-04-11T18:11:21.000Z,9.10
2018-04-11T18:13:51.233Z,9.67
2018-04-11T18:16:20.369Z,12.50
2018-04-11T18:18:49.459Z,8.80
2018-04-11T18:21:17.782Z,8.60
2018-04-11T18:23:46.172Z,12.20
2018-04-11T18:26:14.515Z,11.77
2018-04-11T18:28:42.825Z,7.70
2018-04-11T18:31:11.772Z,7.40
2018-04-11T18:33:40.114Z,8.40
2018-04-11T18:36:09.162Z,8.20
2018-04-11T18:38:38.248Z,9.50
2018-04-11T18:41:06.602Z,8.17
2018-04-11T18:43:34.953Z,7.10
2018-04-11T18:46:03.477Z,8.30
2018-04-11T18:48:32.046Z,11.47
2018-04-11T18:51:01.259Z,10.27
2018-04-11T18:53:29.790Z,9.87
2018-04-11T18:55:58.417Z,11.27
2018-04-11T18:58:27.515Z,8.00
2018-04-11T19:00:56.584Z,7.20
2018-04-11T19:03:24.868Z,7.07
2018-04-11T19:05:53.715Z,7.40
2018-04-11T19:08:22.371Z,7.97
2018-04-11T19:10:51.510Z,9.30
2018-04-11T19:13:20.616Z,9.10
2018-04-11T19:15:49.027Z,7.30
2018-04-11T19:18:17.361Z,8.93
2018-04-11T19:20:45.770Z,8.67
2018-04-11T19:23:14.218Z,7.43
2018-04-11T19:25:42.525Z,8.40
2018-04-11T19:28:10.959Z,9.80
2018-04-11T19:30:39.339Z,7.47
2018-04-11T19:33:07.683Z,9.33
2018-04-11T19:35:36.006Z,9.23
2018-04-11T19:38:04.314Z,9.53
2018-04-11T19:40:32.605Z,8.47
2018-04-11T19:43:00.974Z,10.00
2018-04-11T19:45:29.242Z,7.10
2018-04-11T19:47:57.609Z,7.60
2018-04-11T19:50:25.895Z,9.90
2018-04-11T19:52:54.199Z,9.83
2018-04-11T19:55:22.579Z,7.33
2018-04-11T19:57:50.904Z,9.10
2018-04-11T20:00:19.264Z,8.97
2018-04-11T20:02:48.347Z,7.67
2018-04-11T20:05:16.746Z,7.43
2018-04-11T20:07:45.092Z,8.73
2018-04-11T20:10:13.343Z,7.97
2018-04-11T20:12:42.604Z,8.90
2018-04-11T20:15:10.930Z,8.87
2018-04-11T20:17:39.205Z,8.50
2018-04-11T20:20:07.545Z,8.63
2018-04-11T20:22:36.630Z,8.97
2018-04-11T20:25:05.785Z,10.10
2018-04-11T20:27:34.093Z,8.10
2018-04-11T20:30:02.372Z,7.97
2018-04-11T20:32:30.755Z,11.77
2018-04-11T20:34:59.055Z,7.57
2018-04-11T20:37:28.209Z,7.67
2018-04-11T20:39:56.559Z,8.37
2018-04-11T20:42:24.999Z,7.77
2018-04-11T20:44:53.522Z,24.10
2018-04-11T20:47:21.871Z,11.47
2018-04-11T20:49:50.257Z,8.37
2018-04-11T20:52:18.555Z,8.40
2018-04-11T20:54:46.867Z,11.83
2018-04-11T20:57:15.245Z,11.37
2018-04-11T20:59:43.552Z,13.40
2018-04-11T21:02:12.641Z,8.33
2018-04-11T21:04:40.943Z,8.50
2018-04-11T21:07:09.230Z,9.43
2018-04-11T21:09:38.350Z,8.60
2018-04-11T21:12:06.689Z,9.33
2018-04-11T21:14:35.002Z,9.33
2018-04-11T21:17:03.320Z,9.20
2018-04-11T21:19:31.670Z,11.50
2018-04-11T21:21:59.940Z,9.10
2018-04-11T21:24:28.243Z,9.40
2018-04-11T21:26:56.573Z,9.30
2018-04-11T21:29:24.857Z,9.73
2018-04-11T21:31:53.156Z,9.23
2018-04-11T21:34:21.453Z,10.47
2018-04-11T21:36:49.732Z,10.00
2018-04-11T21:39:18.075Z,10.13
2018-04-11T21:41:46.355Z,10.83
2018-04-11T21:44:14.627Z,9.87
2018-04-11T21:46:54.250Z,10.10
2018-04-11T21:49:22.524Z,9.40
2018-04-11T21:51:50.856Z,11.03
2018-04-11T21:54:19.140Z,11.70
2018-04-11T21:56:49.077Z,9.87
2018-04-11T21:59:17.379Z,10.33
2018-04-11T22:01:46.450Z,10.47
2018-04-11T22:04:14.864Z,9.63
2018-04-11T22:06:43.930Z,10.43
2018-04-11T22:09:12.234Z,10.07
2018-04-11T22:11:41.359Z,12.90
2018-04-11T22:14:09.788Z,16.47
2018-04-11T22:16:38.121Z,10.30
2018-04-11T22:19:06.421Z,10.80
2018-04-11T22:21:34.719Z,11.20
2018-04-11T22:24:03.025Z,10.63
2018-04-11T22:26:32.072Z,12.77
2018-04-11T22:29:00.576Z,11.40
2018-04-11T22:31:28.845Z,10.47
2018-04-11T22:33:57.132Z,11.27
2018-04-11T22:36:25.620Z,9.93
2018-04-11T22:38:54.075Z,10.63
2018-04-11T22:41:22.509Z,10.53
2018-04-11T22:43:51.728Z,11.90
2018-04-11T22:46:20.009Z,9.23
2018-04-11T22:48:48.378Z,9.63
2018-04-11T22:51:17.553Z,11.00
2018-04-11T22:53:46.652Z,9.57
2018-04-11T22:56:14.926Z,10.13
2018-04-11T22:58:43.229Z,10.80
2018-04-11T23:01:11.527Z,10.20
2018-04-11T23:03:39.834Z,9.60
2018-04-11T23:06:08.945Z,10.67
2018-04-11T23:08:37.218Z,10.50
2018-04-11T23:11:05.578Z,9.90
2018-04-11T23:13:33.870Z,10.37
2018-04-11T23:16:02.974Z,15.50
2018-04-11T23:18:31.302Z,15.50
2018-04-11T23:20:59.585Z,12.83
2018-04-11T23:23:27.894Z,9.50
2018-04-11T23:25:56.257Z,10.03
2018-04-11T23:28:24.531Z,9.97
2018-04-11T23:30:52.965Z,9.70
2018-04-11T23:33:21.225Z,10.53
2018-04-11T23:35:49.495Z,15.03
2018-04-11T23:38:17.796Z,10.70
2018-04-11T23:40:46.830Z,9.37
2018-04-11T23:43:15.143Z,9.70
2018-04-11T23:45:43.408Z,10.43
2018-04-11T23:48:11.940Z,13.37
2018-04-11T23:50:41.040Z,12.10
2018-04-11T23:53:10.080Z,11.10
2018-04-11T23:55:39.124Z,10.50
2018-04-11T23:58:08.184Z,11.87
